sensor_id;sensor_type;location;lat;lon;timestamp;P1;durP1;ratioP1;P2;durP2;ratioP2
7557;SDS011;3820;51.098;13.716;2023-11-19T00:02:26;11.00;;;5.90;;
7557;SDS011;3820;51.098;13.716;2023-11-19T00:04:53;13.87;;;7.33;;
7557;SDS011;3820;51.098;13.716;2023-11-19T00:07:20;10.40;;;5.20;;
7557;SDS011;3820;51.098;13.716;2023-11-19T00:09:51;13.87;;;6.67;;
7557;SDS011;3820;51.098;13.716;2023-11-19T00:12:17;15.27;;;6.97;;
7557;SDS011;3820;51.098;13.716;2023-11-19T00:14:45;12.60;;;6.00;;
7557;SDS011;3820;51.098;13.716;2023-11-19T00:17:11;11.03;;;6.27;;
7557;SDS011;3820;51.098;13.716;2023-11-19T00:19:38;12.37;;;6.90;;
7557;SDS011;3820;51.098;13.716;2023-11-19T00:22:04;13.23;;;7.00;;
7557;SDS011;3820;51.098;13.716;2023-11-19T00:24:31;10.33;;;4.90;;
7557;SDS011;3820;51.098;13.716;2023-11-19T00:26:59;16.30;;;8.10;;
7557;SDS011;3820;51.098;13.716;2023-11-19T00:29:27;12.40;;;6.80;;
7557;SDS011;3820;51.098;13.716;2023-11-19T00:31:53;17.23;;;7.40;;
7557;SDS011;3820;51.098;13.716;2023-11-19T00:34:20;12.03;;;6.10;;
7557;SDS011;3820;51.098;13.716;2023-11-19T00:36:49;10.73;;;5.83;;
7557;SDS011;3820;51.098;13.716;2023-11-19T00:39:16;11.97;;;6.10;;
7557;SDS011;3820;51.098;13.716;2023-11-19T00:41:44;9.97;;;6.33;;
7557;SDS011;3820;51.098;13.716;2023-11-19T00:44:12;15.97;;;7.67;;
7557;SDS011;3820;51.098;13.716;2023-11-19T00:46:38;13.00;;;7.20;;
7557;SDS011;3820;51.098;13.716;2023-11-19T00:49:05;11.70;;;6.93;;
7557;SDS011;3820;51.098;13.716;2023-11-19T00:51:32;13.00;;;6.73;;
7557;SDS011;3820;51.098;13.716;2023-11-19T00:53:59;13.77;;;6.93;;
7557;SDS011;3820;51.098;13.716;2023-11-19T00:56:27;13.30;;;5.73;;
7557;SDS011;3820;51.098;13.716;2023-11-19T00:58:55;11.20;;;6.13;;
7557;SDS011;3820;51.098;13.716;2023-11-19T01:01:22;10.40;;;6.20;;
7557;SDS011;3820;51.098;13.716;2023-11-19T01:03:49;11.77;;;6.60;;
7557;SDS011;3820;51.098;13.716;2023-11-19T01:06:26;9.73;;;6.20;;
7557;SDS011;3820;51.098;13.716;2023-11-19T01:08:56;12.07;;;7.10;;
7557;SDS011;3820;51.098;13.716;2023-11-19T01:11:23;11.80;;;6.77;;
7557;SDS011;3820;51.098;13.716;2023-11-19T01:13:50;10.67;;;5.37;;
7557;SDS011;3820;51.098;13.716;2023-11-19T01:16:16;11.63;;;6.37;;
7557;SDS011;3820;51.098;13.716;2023-11-19T01:18:46;12.10;;;6.40;;
7557;SDS011;3820;51.098;13.716;2023-11-19T01:21:13;10.87;;;6.37;;
7557;SDS011;3820;51.098;13.716;2023-11-19T01:23:42;9.70;;;5.60;;
7557;SDS011;3820;51.098;13.716;2023-11-19T01:26:12;10.97;;;6.10;;
7557;SDS011;3820;51.098;13.716;2023-11-19T01:28:39;9.90;;;6.17;;
7557;SDS011;3820;51.098;13.716;2023-11-19T01:31:17;10.33;;;4.90;;
7557;SDS011;3820;51.098;13.716;2023-11-19T01:33:44;9.17;;;5.70;;
7557;SDS011;3820;51.098;13.716;2023-11-19T01:36:14;9.20;;;5.00;;
7557;SDS011;3820;51.098;13.716;2023-11-19T01:38:40;8.77;;;5.03;;
7557;SDS011;3820;51.098;13.716;2023-11-19T01:41:07;7.50;;;4.83;;
7557;SDS011;3820;51.098;13.716;2023-11-19T01:43:35;6.93;;;4.43;;
7557;SDS011;3820;51.098;13.716;2023-11-19T01:46:07;7.37;;;4.90;;
7557;SDS011;3820;51.098;13.716;2023-11-19T01:48:41;7.63;;;4.60;;
7557;SDS011;3820;51.098;13.716;2023-11-19T01:51:09;6.73;;;4.03;;
7557;SDS011;3820;51.098;13.716;2023-11-19T01:53:36;8.27;;;5.00;;
7557;SDS011;3820;51.098;13.716;2023-11-19T01:56:04;7.03;;;4.30;;
7557;SDS011;3820;51.098;13.716;2023-11-19T01:58:31;8.13;;;3.87;;
7557;SDS011;3820;51.098;13.716;2023-11-19T02:00:58;5.53;;;3.87;;
7557;SDS011;3820;51.098;13.716;2023-11-19T02:03:26;6.30;;;4.03;;
7557;SDS011;3820;51.098;13.716;2023-11-19T02:05:56;7.80;;;4.27;;
7557;SDS011;3820;51.098;13.716;2023-11-19T02:08:24;6.67;;;4.07;;
7557;SDS011;3820;51.098;13.716;2023-11-19T02:10:50;5.73;;;3.80;;
7557;SDS011;3820;51.098;13.716;2023-11-19T02:13:18;6.27;;;4.13;;
7557;SDS011;3820;51.098;13.716;2023-11-19T02:15:45;4.60;;;3.27;;
7557;SDS011;3820;51.098;13.716;2023-11-19T02:18:22;5.03;;;3.40;;
7557;SDS011;3820;51.098;13.716;2023-11-19T02:20:54;5.83;;;3.33;;
7557;SDS011;3820;51.098;13.716;2023-11-19T02:23:28;6.27;;;3.20;;
7557;SDS011;3820;51.098;13.716;2023-11-19T02:28:35;4.50;;;2.80;;
7557;SDS011;3820;51.098;13.716;2023-11-19T02:31:02;4.33;;;2.90;;
7557;SDS011;3820;51.098;13.716;2023-11-19T02:33:37;5.40;;;3.00;;
7557;SDS011;3820;51.098;13.716;2023-11-19T02:36:04;4.13;;;2.47;;
7557;SDS011;3820;51.098;13.716;2023-11-19T02:38:33;6.43;;;2.90;;
7557;SDS011;3820;51.098;13.716;2023-11-19T02:41:04;5.00;;;3.03;;
7557;SDS011;3820;51.098;13.716;2023-11-19T02:43:32;5.13;;;2.53;;
7557;SDS011;3820;51.098;13.716;2023-11-19T02:46:03;3.40;;;2.40;;
7557;SDS011;3820;51.098;13.716;2023-11-19T02:48:37;4.47;;;2.43;;
7557;SDS011;3820;51.098;13.716;2023-11-19T02:51:05;4.67;;;2.87;;
7557;SDS011;3820;51.098;13.716;2023-11-19T02:53:36;4.37;;;2.70;;
7557;SDS011;3820;51.098;13.716;2023-11-19T02:56:07;4.07;;;2.50;;
7557;SDS011;3820;51.098;13.716;2023-11-19T02:58:52;3.17;;;2.40;;
7557;SDS011;3820;51.098;13.716;2023-11-19T03:01:24;4.80;;;3.20;;
7557;SDS011;3820;51.098;13.716;2023-11-19T03:03:58;3.33;;;2.30;;
7557;SDS011;3820;51.098;13.716;2023-11-19T03:06:27;2.83;;;2.40;;
7557;SDS011;3820;51.098;13.716;2023-11-19T03:08:54;4.10;;;2.50;;
7557;SDS011;3820;51.098;13.716;2023-11-19T03:11:22;4.20;;;2.60;;
7557;SDS011;3820;51.098;13.716;2023-11-19T03:13:49;6.30;;;2.30;;
7557;SDS011;3820;51.098;13.716;2023-11-19T03:16:16;3.40;;;2.33;;
7557;SDS011;3820;51.098;13.716;2023-11-19T03:18:44;3.67;;;2.40;;
7557;SDS011;3820;51.098;13.716;2023-11-19T03:21:10;3.83;;;2.57;;
7557;SDS011;3820;51.098;13.716;2023-11-19T03:23:37;2.80;;;2.30;;
7557;SDS011;3820;51.098;13.716;2023-11-19T03:26:06;4.27;;;2.40;;
7557;SDS011;3820;51.098;13.716;2023-11-19T03:28:34;3.67;;;2.40;;
7557;SDS011;3820;51.098;13.716;2023-11-19T03:31:04;3.17;;;2.20;;
7557;SDS011;3820;51.098;13.716;2023-11-19T03:33:31;3.37;;;2.30;;
7557;SDS011;3820;51.098;13.716;2023-11-19T03:35:58;2.83;;;2.13;;
7557;SDS011;3820;51.098;13.716;2023-11-19T03:38:24;3.43;;;1.90;;
7557;SDS011;3820;51.098;13.716;2023-11-19T03:40:51;2.83;;;1.93;;
7557;SDS011;3820;51.098;13.716;2023-11-19T03:43:18;2.80;;;2.20;;
7557;SDS011;3820;51.098;13.716;2023-11-19T03:45:46;2.20;;;1.73;;
7557;SDS011;3820;51.098;13.716;2023-11-19T03:48:13;3.80;;;2.13;;
7557;SDS011;3820;51.098;13.716;2023-11-19T03:50:42;2.47;;;1.90;;
7557;SDS011;3820;51.098;13.716;2023-11-19T03:53:11;3.03;;;2.17;;
7557;SDS011;3820;51.098;13.716;2023-11-19T03:55:38;2.60;;;2.20;;
7557;SDS011;3820;51.098;13.716;2023-11-19T03:58:05;3.53;;;2.17;;
7557;SDS011;3820;51.098;13.716;2023-11-19T04:00:32;4.33;;;2.50;;
7557;SDS011;3820;51.098;13.716;2023-11-19T04:02:58;2.93;;;2.30;;
7557;SDS011;3820;51.098;13.716;2023-11-19T04:05:25;4.07;;;2.10;;
7557;SDS011;3820;51.098;13.716;2023-11-19T04:07:52;2.83;;;2.40;;
7557;SDS011;3820;51.098;13.716;2023-11-19T04:10:18;4.80;;;2.57;;
7557;SDS011;3820;51.098;13.716;2023-11-19T04:12:47;2.70;;;2.23;;
7557;SDS011;3820;51.098;13.716;2023-11-19T04:15:14;3.10;;;2.37;;
7557;SDS011;3820;51.098;13.716;2023-11-19T04:17:41;3.17;;;2.40;;
7557;SDS011;3820;51.098;13.716;2023-11-19T04:20:07;4.53;;;2.80;;
7557;SDS011;3820;51.098;13.716;2023-11-19T04:22:38;4.23;;;2.60;;
7557;SDS011;3820;51.098;13.716;2023-11-19T04:25:05;3.90;;;2.90;;
7557;SDS011;3820;51.098;13.716;2023-11-19T04:27:32;2.90;;;2.17;;
7557;SDS011;3820;51.098;13.716;2023-11-19T04:29:58;4.60;;;2.93;;
7557;SDS011;3820;51.098;13.716;2023-11-19T04:32:28;3.73;;;2.70;;
7557;SDS011;3820;51.098;13.716;2023-11-19T04:34:55;5.43;;;1.97;;
7557;SDS011;3820;51.098;13.716;2023-11-19T04:37:22;4.07;;;2.93;;
7557;SDS011;3820;51.098;13.716;2023-11-19T04:39:48;4.63;;;3.27;;
7557;SDS011;3820;51.098;13.716;2023-11-19T04:42:15;5.47;;;3.20;;
7557;SDS011;3820;51.098;13.716;2023-11-19T04:44:43;7.37;;;3.80;;
7557;SDS011;3820;51.098;13.716;2023-11-19T04:47:10;3.93;;;2.90;;
7557;SDS011;3820;51.098;13.716;2023-11-19T04:49:41;5.37;;;3.90;;
7557;SDS011;3820;51.098;13.716;2023-11-19T04:52:10;6.60;;;3.73;;
7557;SDS011;3820;51.098;13.716;2023-11-19T04:54:42;4.17;;;2.90;;
7557;SDS011;3820;51.098;13.716;2023-11-19T04:57:09;6.17;;;3.60;;
7557;SDS011;3820;51.098;13.716;2023-11-19T04:59:40;5.57;;;3.13;;
7557;SDS011;3820;51.098;13.716;2023-11-19T05:02:08;5.53;;;3.40;;
7557;SDS011;3820;51.098;13.716;2023-11-19T05:04:34;5.10;;;3.30;;
7557;SDS011;3820;51.098;13.716;2023-11-19T05:07:01;5.93;;;3.07;;
7557;SDS011;3820;51.098;13.716;2023-11-19T05:09:28;6.87;;;3.80;;
7557;SDS011;3820;51.098;13.716;2023-11-19T05:11:54;5.90;;;3.60;;
7557;SDS011;3820;51.098;13.716;2023-11-19T05:14:21;6.43;;;3.30;;
7557;SDS011;3820;51.098;13.716;2023-11-19T05:16:48;3.87;;;2.90;;
7557;SDS011;3820;51.098;13.716;2023-11-19T05:19:15;6.77;;;3.80;;
7557;SDS011;3820;51.098;13.716;2023-11-19T05:21:42;6.50;;;3.27;;
7557;SDS011;3820;51.098;13.716;2023-11-19T05:24:10;5.13;;;3.10;;
7557;SDS011;3820;51.098;13.716;2023-11-19T05:26:38;7.60;;;3.90;;
7557;SDS011;3820;51.098;13.716;2023-11-19T05:29:04;5.17;;;3.60;;
7557;SDS011;3820;51.098;13.716;2023-11-19T05:31:31;4.77;;;3.47;;
7557;SDS011;3820;51.098;13.716;2023-11-19T05:34:01;7.37;;;3.40;;
7557;SDS011;3820;51.098;13.716;2023-11-19T05:36:28;5.90;;;3.67;;
7557;SDS011;3820;51.098;13.716;2023-11-19T05:38:55;6.23;;;3.53;;
7557;SDS011;3820;51.098;13.716;2023-11-19T05:41:22;6.83;;;3.93;;
7557;SDS011;3820;51.098;13.716;2023-11-19T05:43:49;9.23;;;4.80;;
7557;SDS011;3820;51.098;13.716;2023-11-19T05:46:15;7.50;;;3.73;;
7557;SDS011;3820;51.098;13.716;2023-11-19T05:48:46;5.40;;;3.17;;
7557;SDS011;3820;51.098;13.716;2023-11-19T05:51:13;7.27;;;4.53;;
7557;SDS011;3820;51.098;13.716;2023-11-19T05:53:41;6.43;;;3.07;;
7557;SDS011;3820;51.098;13.716;2023-11-19T05:56:08;5.77;;;4.00;;
7557;SDS011;3820;51.098;13.716;2023-11-19T05:58:36;5.63;;;3.63;;
7557;SDS011;3820;51.098;13.716;2023-11-19T06:01:04;4.70;;;3.13;;
7557;SDS011;3820;51.098;13.716;2023-11-19T06:03:33;7.53;;;4.47;;
7557;SDS011;3820;51.098;13.716;2023-11-19T06:06:01;11.47;;;5.00;;
7557;SDS011;3820;51.098;13.716;2023-11-19T06:08:28;9.47;;;4.73;;
7557;SDS011;3820;51.098;13.716;2023-11-19T06:10:57;6.60;;;4.70;;
7557;SDS011;3820;51.098;13.716;2023-11-19T06:13:23;9.40;;;4.23;;
7557;SDS011;3820;51.098;13.716;2023-11-19T06:15:52;9.80;;;4.80;;
7557;SDS011;3820;51.098;13.716;2023-11-19T06:18:18;6.77;;;4.43;;
7557;SDS011;3820;51.098;13.716;2023-11-19T06:20:47;7.57;;;4.03;;
7557;SDS011;3820;51.098;13.716;2023-11-19T06:23:13;7.63;;;4.47;;
7557;SDS011;3820;51.098;13.716;2023-11-19T06:25:40;6.73;;;3.77;;
7557;SDS011;3820;51.098;13.716;2023-11-19T06:28:06;8.37;;;4.23;;
7557;SDS011;3820;51.098;13.716;2023-11-19T06:30:33;7.33;;;3.80;;
7557;SDS011;3820;51.098;13.716;2023-11-19T06:33:00;5.97;;;4.10;;
7557;SDS011;3820;51.098;13.716;2023-11-19T06:35:27;8.13;;;4.67;;
7557;SDS011;3820;51.098;13.716;2023-11-19T06:37:56;7.17;;;4.37;;
7557;SDS011;3820;51.098;13.716;2023-11-19T06:40:23;7.60;;;4.60;;
7557;SDS011;3820;51.098;13.716;2023-11-19T06:42:49;8.20;;;4.20;;
7557;SDS011;3820;51.098;13.716;2023-11-19T06:45:18;6.93;;;4.40;;
7557;SDS011;3820;51.098;13.716;2023-11-19T06:47:45;7.43;;;4.10;;
7557;SDS011;3820;51.098;13.716;2023-11-19T06:50:11;6.73;;;3.80;;
7557;SDS011;3820;51.098;13.716;2023-11-19T06:52:39;5.77;;;4.10;;
7557;SDS011;3820;51.098;13.716;2023-11-19T06:55:06;7.87;;;4.00;;
7557;SDS011;3820;51.098;13.716;2023-11-19T06:57:34;12.03;;;4.37;;
7557;SDS011;3820;51.098;13.716;2023-11-19T07:00:01;9.30;;;4.87;;
7557;SDS011;3820;51.098;13.716;2023-11-19T07:02:28;6.07;;;3.47;;
7557;SDS011;3820;51.098;13.716;2023-11-19T07:04:55;4.87;;;3.53;;
7557;SDS011;3820;51.098;13.716;2023-11-19T07:07:21;6.17;;;3.60;;
7557;SDS011;3820;51.098;13.716;2023-11-19T07:09:48;5.70;;;3.20;;
7557;SDS011;3820;51.098;13.716;2023-11-19T07:12:14;4.63;;;3.27;;
7557;SDS011;3820;51.098;13.716;2023-11-19T07:14:41;6.10;;;3.97;;
7557;SDS011;3820;51.098;13.716;2023-11-19T07:17:08;6.20;;;3.30;;
7557;SDS011;3820;51.098;13.716;2023-11-19T07:19:35;7.17;;;3.80;;
7557;SDS011;3820;51.098;13.716;2023-11-19T07:22:04;5.63;;;3.50;;
7557;SDS011;3820;51.098;13.716;2023-11-19T07:24:32;6.27;;;3.50;;
7557;SDS011;3820;51.098;13.716;2023-11-19T07:26:59;4.73;;;3.17;;
7557;SDS011;3820;51.098;13.716;2023-11-19T07:29:26;3.90;;;2.97;;
7557;SDS011;3820;51.098;13.716;2023-11-19T07:31:55;4.40;;;3.43;;
7557;SDS011;3820;51.098;13.716;2023-11-19T07:34:22;6.60;;;3.30;;
7557;SDS011;3820;51.098;13.716;2023-11-19T07:36:49;5.53;;;3.40;;
7557;SDS011;3820;51.098;13.716;2023-11-19T07:39:16;4.53;;;3.07;;
7557;SDS011;3820;51.098;13.716;2023-11-19T07:41:43;4.87;;;2.97;;
7557;SDS011;3820;51.098;13.716;2023-11-19T07:44:10;5.07;;;2.93;;
7557;SDS011;3820;51.098;13.716;2023-11-19T07:46:37;3.80;;;2.37;;
7557;SDS011;3820;51.098;13.716;2023-11-19T07:49:04;4.93;;;2.80;;
7557;SDS011;3820;51.098;13.716;2023-11-19T07:51:31;4.40;;;3.00;;
7557;SDS011;3820;51.098;13.716;2023-11-19T07:53:57;3.97;;;2.90;;
7557;SDS011;3820;51.098;13.716;2023-11-19T07:56:24;4.50;;;2.67;;
7557;SDS011;3820;51.098;13.716;2023-11-19T07:58:51;5.17;;;2.90;;
7557;SDS011;3820;51.098;13.716;2023-11-19T08:01:19;3.73;;;2.50;;
7557;SDS011;3820;51.098;13.716;2023-11-19T08:03:45;3.23;;;2.40;;
7557;SDS011;3820;51.098;13.716;2023-11-19T08:06:15;3.40;;;2.60;;
7557;SDS011;3820;51.098;13.716;2023-11-19T08:08:42;3.70;;;2.57;;
7557;SDS011;3820;51.098;13.716;2023-11-19T08:11:09;4.33;;;2.83;;
7557;SDS011;3820;51.098;13.716;2023-11-19T08:13:36;5.00;;;2.60;;
7557;SDS011;3820;51.098;13.716;2023-11-19T08:16:02;3.93;;;2.83;;
7557;SDS011;3820;51.098;13.716;2023-11-19T08:18:29;5.27;;;3.13;;
7557;SDS011;3820;51.098;13.716;2023-11-19T08:20:56;5.03;;;3.00;;
7557;SDS011;3820;51.098;13.716;2023-11-19T08:23:24;6.87;;;3.90;;
7557;SDS011;3820;51.098;13.716;2023-11-19T08:25:52;6.30;;;3.43;;
7557;SDS011;3820;51.098;13.716;2023-11-19T08:28:19;5.67;;;3.43;;
7557;SDS011;3820;51.098;13.716;2023-11-19T08:30:45;5.10;;;3.43;;
7557;SDS011;3820;51.098;13.716;2023-11-19T08:33:12;6.57;;;3.70;;
7557;SDS011;3820;51.098;13.716;2023-11-19T08:35:39;5.47;;;3.53;;
7557;SDS011;3820;51.098;13.716;2023-11-19T08:38:06;4.70;;;3.27;;
7557;SDS011;3820;51.098;13.716;2023-11-19T08:40:33;5.73;;;3.20;;
7557;SDS011;3820;51.098;13.716;2023-11-19T08:42:59;6.93;;;3.80;;
7557;SDS011;3820;51.098;13.716;2023-11-19T08:45:26;4.47;;;2.83;;
7557;SDS011;3820;51.098;13.716;2023-11-19T08:47:52;3.47;;;2.50;;
7557;SDS011;3820;51.098;13.716;2023-11-19T08:50:19;4.97;;;3.07;;
7557;SDS011;3820;51.098;13.716;2023-11-19T08:52:46;2.10;;;1.90;;
7557;SDS011;3820;51.098;13.716;2023-11-19T08:55:12;5.90;;;3.13;;
7557;SDS011;3820;51.098;13.716;2023-11-19T08:57:39;2.97;;;2.37;;
7557;SDS011;3820;51.098;13.716;2023-11-19T09:00:06;3.27;;;2.53;;
7557;SDS011;3820;51.098;13.716;2023-11-19T09:02:37;2.27;;;1.83;;
7557;SDS011;3820;51.098;13.716;2023-11-19T09:05:04;3.40;;;2.53;;
7557;SDS011;3820;51.098;13.716;2023-11-19T09:07:34;3.47;;;2.53;;
7557;SDS011;3820;51.098;13.716;2023-11-19T09:10:01;3.30;;;2.27;;
7557;SDS011;3820;51.098;13.716;2023-11-19T09:12:27;4.67;;;2.80;;
7557;SDS011;3820;51.098;13.716;2023-11-19T09:14:54;6.13;;;3.30;;
7557;SDS011;3820;51.098;13.716;2023-11-19T09:17:20;3.53;;;2.03;;
7557;SDS011;3820;51.098;13.716;2023-11-19T09:19:47;2.03;;;1.77;;
7557;SDS011;3820;51.098;13.716;2023-11-19T09:22:14;3.17;;;1.33;;
7557;SDS011;3820;51.098;13.716;2023-11-19T09:24:41;1.97;;;1.40;;
7557;SDS011;3820;51.098;13.716;2023-11-19T09:27:07;6.47;;;1.33;;
7557;SDS011;3820;51.098;13.716;2023-11-19T09:29:34;1.73;;;1.10;;
7557;SDS011;3820;51.098;13.716;2023-11-19T09:32:00;1.17;;;0.80;;
7557;SDS011;3820;51.098;13.716;2023-11-19T09:34:30;1.80;;;1.07;;
7557;SDS011;3820;51.098;13.716;2023-11-19T09:36:58;0.87;;;0.70;;
7557;SDS011;3820;51.098;13.716;2023-11-19T09:39:24;1.30;;;1.10;;
7557;SDS011;3820;51.098;13.716;2023-11-19T09:41:52;1.00;;;0.90;;
7557;SDS011;3820;51.098;13.716;2023-11-19T09:44:18;1.10;;;1.00;;
7557;SDS011;3820;51.098;13.716;2023-11-19T09:46:45;1.03;;;1.00;;
7557;SDS011;3820;51.098;13.716;2023-11-19T09:49:13;2.23;;;1.10;;
7557;SDS011;3820;51.098;13.716;2023-11-19T09:51:40;1.47;;;1.00;;
7557;SDS011;3820;51.098;13.716;2023-11-19T09:54:07;0.83;;;0.83;;
7557;SDS011;3820;51.098;13.716;2023-11-19T09:56:34;3.07;;;0.80;;
7557;SDS011;3820;51.098;13.716;2023-11-19T09:59:02;3.23;;;1.13;;
7557;SDS011;3820;51.098;13.716;2023-11-19T10:01:29;1.80;;;1.40;;
7557;SDS011;3820;51.098;13.716;2023-11-19T10:03:58;2.03;;;0.87;;
7557;SDS011;3820;51.098;13.716;2023-11-19T10:06:25;0.70;;;0.70;;
7557;SDS011;3820;51.098;13.716;2023-11-19T10:08:53;1.93;;;0.87;;
7557;SDS011;3820;51.098;13.716;2023-11-19T10:11:19;1.10;;;1.10;;
7557;SDS011;3820;51.098;13.716;2023-11-19T10:13:46;3.73;;;0.90;;
7557;SDS011;3820;51.098;13.716;2023-11-19T10:16:14;2.87;;;0.70;;
7557;SDS011;3820;51.098;13.716;2023-11-19T10:18:48;0.93;;;0.70;;
7557;SDS011;3820;51.098;13.716;2023-11-19T10:21:17;1.30;;;0.85;;
7557;SDS011;3820;51.098;13.716;2023-11-19T10:23:57;1.60;;;0.73;;
7557;SDS011;3820;51.098;13.716;2023-11-19T10:26:27;1.60;;;0.80;;
7557;SDS011;3820;51.098;13.716;2023-11-19T10:28:54;1.05;;;0.90;;
7557;SDS011;3820;51.098;13.716;2023-11-19T10:31:22;2.00;;;1.05;;
7557;SDS011;3820;51.098;13.716;2023-11-19T10:33:52;1.90;;;0.80;;
7557;SDS011;3820;51.098;13.716;2023-11-19T10:36:19;1.08;;;0.80;;
7557;SDS011;3820;51.098;13.716;2023-11-19T10:38:54;1.63;;;0.70;;
7557;SDS011;3820;51.098;13.716;2023-11-19T10:41:28;0.68;;;0.68;;
7557;SDS011;3820;51.098;13.716;2023-11-19T10:43:57;1.48;;;0.70;;
7557;SDS011;3820;51.098;13.716;2023-11-19T10:46:36;2.15;;;0.77;;
7557;SDS011;3820;51.098;13.716;2023-11-19T10:49:06;1.38;;;1.00;;
7557;SDS011;3820;51.098;13.716;2023-11-19T10:51:34;0.88;;;0.75;;
7557;SDS011;3820;51.098;13.716;2023-11-19T10:54:04;1.35;;;0.77;;
7557;SDS011;3820;51.098;13.716;2023-11-19T10:56:34;1.63;;;0.82;;
7557;SDS011;3820;51.098;13.716;2023-11-19T10:59:01;0.50;;;0.50;;
7557;SDS011;3820;51.098;13.716;2023-11-19T11:01:32;0.50;;;0.50;;
7557;SDS011;3820;51.098;13.716;2023-11-19T11:04:04;1.08;;;0.88;;
7557;SDS011;3820;51.098;13.716;2023-11-19T11:06:33;1.23;;;0.85;;
7557;SDS011;3820;51.098;13.716;2023-11-19T11:09:00;0.93;;;0.80;;
7557;SDS011;3820;51.098;13.716;2023-11-19T11:11:27;1.73;;;0.80;;
7557;SDS011;3820;51.098;13.716;2023-11-19T11:13:53;1.23;;;0.80;;
7557;SDS011;3820;51.098;13.716;2023-11-19T11:16:21;2.67;;;1.00;;
7557;SDS011;3820;51.098;13.716;2023-11-19T11:18:49;2.45;;;0.95;;
7557;SDS011;3820;51.098;13.716;2023-11-19T11:21:17;1.92;;;0.68;;
7557;SDS011;3820;51.098;13.716;2023-11-19T11:29:31;1.65;;;1.23;;
7557;SDS011;3820;51.098;13.716;2023-11-19T11:39:56;1.70;;;0.70;;
7557;SDS011;3820;51.098;13.716;2023-11-19T11:44:59;5.40;;;1.08;;
7557;SDS011;3820;51.098;13.716;2023-11-19T11:50:15;1.55;;;0.80;;
7557;SDS011;3820;51.098;13.716;2023-11-19T11:55:25;1.00;;;0.70;;
7557;SDS011;3820;51.098;13.716;2023-11-19T11:57:52;2.83;;;0.93;;
7557;SDS011;3820;51.098;13.716;2023-11-19T12:00:38;2.85;;;1.08;;
7557;SDS011;3820;51.098;13.716;2023-11-19T12:03:06;2.25;;;1.05;;
7557;SDS011;3820;51.098;13.716;2023-11-19T12:05:38;0.80;;;0.55;;
7557;SDS011;3820;51.098;13.716;2023-11-19T12:08:05;1.98;;;0.68;;
7557;SDS011;3820;51.098;13.716;2023-11-19T12:10:37;1.63;;;0.68;;
7557;SDS011;3820;51.098;13.716;2023-11-19T12:13:09;4.13;;;1.20;;
7557;SDS011;3820;51.098;13.716;2023-11-19T12:18:27;0.90;;;0.70;;
7557;SDS011;3820;51.098;13.716;2023-11-19T12:20:55;2.08;;;1.30;;
7557;SDS011;3820;51.098;13.716;2023-11-19T12:23:22;1.58;;;0.70;;
7557;SDS011;3820;51.098;13.716;2023-11-19T12:25:49;2.13;;;1.05;;
7557;SDS011;3820;51.098;13.716;2023-11-19T12:28:16;2.00;;;0.70;;
7557;SDS011;3820;51.098;13.716;2023-11-19T12:30:44;0.70;;;0.70;;
7557;SDS011;3820;51.098;13.716;2023-11-19T12:33:12;11.85;;;1.30;;
7557;SDS011;3820;51.098;13.716;2023-11-19T12:35:42;2.58;;;0.90;;
7557;SDS011;3820;51.098;13.716;2023-11-19T12:38:20;3.08;;;0.90;;
7557;SDS011;3820;51.098;13.716;2023-11-19T12:41:05;2.78;;;1.38;;
7557;SDS011;3820;51.098;13.716;2023-11-19T12:43:32;1.90;;;0.90;;
7557;SDS011;3820;51.098;13.716;2023-11-19T12:46:19;2.53;;;1.00;;
7557;SDS011;3820;51.098;13.716;2023-11-19T12:48:50;4.43;;;1.50;;
7557;SDS011;3820;51.098;13.716;2023-11-19T12:51:17;3.08;;;1.02;;
7557;SDS011;3820;51.098;13.716;2023-11-19T12:53:47;2.88;;;1.35;;
7557;SDS011;3820;51.098;13.716;2023-11-19T12:56:21;3.92;;;1.25;;
7557;SDS011;3820;51.098;13.716;2023-11-19T12:58:48;2.40;;;1.17;;
7557;SDS011;3820;51.098;13.716;2023-11-19T13:01:19;4.13;;;1.05;;
7557;SDS011;3820;51.098;13.716;2023-11-19T13:03:47;2.40;;;0.93;;
7557;SDS011;3820;51.098;13.716;2023-11-19T13:06:19;1.58;;;0.85;;
7557;SDS011;3820;51.098;13.716;2023-11-19T13:08:48;3.90;;;1.40;;
7557;SDS011;3820;51.098;13.716;2023-11-19T13:11:31;2.22;;;1.30;;
7557;SDS011;3820;51.098;13.716;2023-11-19T13:13:59;1.92;;;1.00;;
7557;SDS011;3820;51.098;13.716;2023-11-19T13:16:38;2.17;;;0.90;;
7557;SDS011;3820;51.098;13.716;2023-11-19T13:19:05;2.83;;;0.80;;
7557;SDS011;3820;51.098;13.716;2023-11-19T13:21:32;2.50;;;1.00;;
7557;SDS011;3820;51.098;13.716;2023-11-19T13:23:58;3.03;;;1.13;;
7557;SDS011;3820;51.098;13.716;2023-11-19T13:26:25;3.28;;;1.20;;
7557;SDS011;3820;51.098;13.716;2023-11-19T13:28:52;3.88;;;1.35;;
7557;SDS011;3820;51.098;13.716;2023-11-19T13:31:19;2.05;;;0.82;;
7557;SDS011;3820;51.098;13.716;2023-11-19T13:33:46;4.10;;;1.42;;
7557;SDS011;3820;51.098;13.716;2023-11-19T13:36:13;6.32;;;1.30;;
7557;SDS011;3820;51.098;13.716;2023-11-19T13:38:42;4.95;;;1.45;;
7557;SDS011;3820;51.098;13.716;2023-11-19T13:41:11;1.88;;;0.90;;
7557;SDS011;3820;51.098;13.716;2023-11-19T13:43:38;3.90;;;1.27;;
7557;SDS011;3820;51.098;13.716;2023-11-19T13:46:05;5.13;;;1.55;;
7557;SDS011;3820;51.098;13.716;2023-11-19T13:48:32;3.17;;;1.52;;
7557;SDS011;3820;51.098;13.716;2023-11-19T13:50:59;3.85;;;1.30;;
7557;SDS011;3820;51.098;13.716;2023-11-19T13:53:26;4.00;;;1.00;;
7557;SDS011;3820;51.098;13.716;2023-11-19T13:55:52;7.03;;;1.35;;
7557;SDS011;3820;51.098;13.716;2023-11-19T13:58:19;5.28;;;1.10;;
7557;SDS011;3820;51.098;13.716;2023-11-19T14:00:46;9.35;;;1.63;;
7557;SDS011;3820;51.098;13.716;2023-11-19T14:03:12;10.00;;;1.45;;
7557;SDS011;3820;51.098;13.716;2023-11-19T14:05:40;7.15;;;1.48;;
7557;SDS011;3820;51.098;13.716;2023-11-19T14:08:08;6.20;;;2.47;;
7557;SDS011;3820;51.098;13.716;2023-11-19T14:10:49;9.25;;;2.42;;
7557;SDS011;3820;51.098;13.716;2023-11-19T14:13:16;5.32;;;2.13;;
7557;SDS011;3820;51.098;13.716;2023-11-19T14:15:42;5.15;;;1.95;;
7557;SDS011;3820;51.098;13.716;2023-11-19T14:18:11;4.90;;;1.77;;
7557;SDS011;3820;51.098;13.716;2023-11-19T14:20:37;5.28;;;1.30;;
7557;SDS011;3820;51.098;13.716;2023-11-19T14:23:06;4.47;;;1.67;;
7557;SDS011;3820;51.098;13.716;2023-11-19T14:25:32;3.03;;;1.20;;
7557;SDS011;3820;51.098;13.716;2023-11-19T14:27:59;2.47;;;1.25;;
7557;SDS011;3820;51.098;13.716;2023-11-19T14:30:27;3.50;;;1.33;;
7557;SDS011;3820;51.098;13.716;2023-11-19T14:32:54;5.35;;;1.25;;
7557;SDS011;3820;51.098;13.716;2023-11-19T14:35:21;7.15;;;2.33;;
7557;SDS011;3820;51.098;13.716;2023-11-19T14:37:47;5.38;;;1.60;;
7557;SDS011;3820;51.098;13.716;2023-11-19T14:40:15;3.58;;;1.13;;
7557;SDS011;3820;51.098;13.716;2023-11-19T14:42:42;2.58;;;1.15;;
7557;SDS011;3820;51.098;13.716;2023-11-19T14:45:09;5.40;;;1.33;;
7557;SDS011;3820;51.098;13.716;2023-11-19T14:47:38;5.55;;;1.58;;
7557;SDS011;3820;51.098;13.716;2023-11-19T14:50:05;5.03;;;1.95;;
7557;SDS011;3820;51.098;13.716;2023-11-19T14:52:34;6.72;;;1.38;;
7557;SDS011;3820;51.098;13.716;2023-11-19T14:55:02;4.20;;;1.73;;
7557;SDS011;3820;51.098;13.716;2023-11-19T14:57:29;2.67;;;1.00;;
7557;SDS011;3820;51.098;13.716;2023-11-19T14:59:56;7.22;;;1.35;;
7557;SDS011;3820;51.098;13.716;2023-11-19T15:02:23;3.60;;;1.30;;
7557;SDS011;3820;51.098;13.716;2023-11-19T15:04:49;3.78;;;1.40;;
7557;SDS011;3820;51.098;13.716;2023-11-19T15:07:16;5.65;;;1.60;;
7557;SDS011;3820;51.098;13.716;2023-11-19T15:09:43;3.97;;;1.55;;
7557;SDS011;3820;51.098;13.716;2023-11-19T15:12:09;2.75;;;1.65;;
7557;SDS011;3820;51.098;13.716;2023-11-19T15:14:36;6.93;;;1.85;;
7557;SDS011;3820;51.098;13.716;2023-11-19T15:17:03;10.00;;;1.70;;
7557;SDS011;3820;51.098;13.716;2023-11-19T15:19:29;3.72;;;1.48;;
7557;SDS011;3820;51.098;13.716;2023-11-19T15:21:56;5.90;;;2.08;;
7557;SDS011;3820;51.098;13.716;2023-11-19T15:24:23;4.97;;;1.67;;
7557;SDS011;3820;51.098;13.716;2023-11-19T15:26:51;4.05;;;2.20;;
7557;SDS011;3820;51.098;13.716;2023-11-19T15:29:18;5.78;;;1.20;;
7557;SDS011;3820;51.098;13.716;2023-11-19T15:31:46;4.30;;;2.28;;
7557;SDS011;3820;51.098;13.716;2023-11-19T15:34:13;4.15;;;1.63;;